createdAt,value
2019-03-16T00:00:05.322Z,0.00
2019-03-16T00:01:05.320Z,0.00
2019-03-16T00:02:05.326Z,0.00
2019-03-16T00:03:05.375Z,0.00
2019-03-16T00:04:05.341Z,0.00
2019-03-16T00:05:05.303Z,0.00
2019-03-16T00:06:05.294Z,0.00
2019-03-16T00:07:05.295Z,0.00
2019-03-16T00:08:05.291Z,0.00
2019-03-16T00:09:05.318Z,0.00
2019-03-16T00:10:05.277Z,0.00
2019-03-16T00:11:05.282Z,0.00
2019-03-16T00:12:05.276Z,0.00
2019-03-16T00:13:05.271Z,0.00
2019-03-16T00:14:05.301Z,0.00
2019-03-16T00:15:05.264Z,0.00
2019-03-16T00:16:05.260Z,0.00
2019-03-16T00:17:05.278Z,0.00
2019-03-16T00:18:05.250Z,0.00
2019-03-16T00:19:05.284Z,0.00
2019-03-16T00:20:05.271Z,0.00
2019-03-16T00:21:05.246Z,0.00
2019-03-16T00:22:05.235Z,0.00
2019-03-16T00:23:05.231Z,0.00
2019-03-16T00:24:05.254Z,0.00
2019-03-16T00:25:05.218Z,0.00
2019-03-16T00:26:05.247Z,0.00
2019-03-16T00:27:05.215Z,0.00
2019-03-16T00:28:05.209Z,0.00
2019-03-16T00:29:05.248Z,0.00
2019-03-16T00:30:05.208Z,0.00
2019-03-16T00:31:05.203Z,0.00
2019-03-16T00:32:13.263Z,0.00
2019-03-16T00:33:05.192Z,0.00
2019-03-16T00:34:05.222Z,0.00
2019-03-16T00:35:05.186Z,0.00
2019-03-16T00:36:05.180Z,0.00
2019-03-16T00:37:05.177Z,0.00
2019-03-16T00:38:05.173Z,0.00
2019-03-16T00:39:05.199Z,0.00
2019-03-16T00:40:05.194Z,0.00
2019-03-16T00:41:05.159Z,0.00
2019-03-16T00:42:05.159Z,0.00
2019-03-16T00:43:05.152Z,0.00
2019-03-16T00:44:05.178Z,0.00
2019-03-16T00:45:05.143Z,0.00
2019-03-16T00:46:05.145Z,0.00
2019-03-16T00:47:05.139Z,0.00
2019-03-16T00:48:05.135Z,0.00
2019-03-16T00:49:05.160Z,0.00
2019-03-16T00:50:05.155Z,0.00
2019-03-16T00:51:05.131Z,0.00
2019-03-16T00:52:05.118Z,0.00
2019-03-16T00:53:05.112Z,0.00
2019-03-16T00:54:05.111Z,0.00
2019-03-16T00:55:05.135Z,0.00
2019-03-16T00:56:05.104Z,0.00
2019-03-16T00:57:05.098Z,0.00
2019-03-16T00:58:05.109Z,0.00
2019-03-16T00:59:05.119Z,0.00
2019-03-16T01:00:05.094Z,0.00
2019-03-16T01:01:05.085Z,0.00
2019-03-16T01:02:05.076Z,0.00
2019-03-16T01:03:05.078Z,0.00
2019-03-16T01:04:05.102Z,0.00
2019-03-16T01:05:05.067Z,0.00
2019-03-16T01:06:05.062Z,0.00
2019-03-16T01:07:05.057Z,0.00
2019-03-16T01:08:05.085Z,0.00
2019-03-16T01:09:05.054Z,0.00
2019-03-16T01:10:05.080Z,0.00
2019-03-16T01:11:05.051Z,0.00
2019-03-16T01:12:05.045Z,0.00
2019-03-16T01:13:05.038Z,0.00
2019-03-16T01:14:05.068Z,0.00
2019-03-16T01:15:05.060Z,0.00
2019-03-16T01:16:05.031Z,0.00
2019-03-16T01:17:05.022Z,0.00
2019-03-16T01:18:05.021Z,0.00
2019-03-16T01:19:05.014Z,0.00
2019-03-16T01:20:05.042Z,0.00
2019-03-16T01:21:05.035Z,0.00
2019-03-16T01:22:04.999Z,0.00
2019-03-16T01:23:04.999Z,0.00
2019-03-16T01:24:04.994Z,0.00
2019-03-16T01:25:05.020Z,0.00
2019-03-16T01:26:04.987Z,0.00
2019-03-16T01:27:04.982Z,0.00
2019-03-16T01:28:04.982Z,0.00
2019-03-16T01:29:04.971Z,0.00
2019-03-16T01:30:04.994Z,0.00
2019-03-16T01:31:04.973Z,0.00
2019-03-16T01:32:04.959Z,0.00
2019-03-16T01:33:04.957Z,0.00
2019-03-16T01:34:04.957Z,0.00
2019-03-16T01:35:04.975Z,0.00
2019-03-16T01:36:04.947Z,0.00
2019-03-16T01:37:04.946Z,0.00
2019-03-16T01:38:04.941Z,0.00
2019-03-16T01:39:04.940Z,0.00
2019-03-16T01:40:04.964Z,0.00
2019-03-16T01:41:04.928Z,0.00
2019-03-16T01:42:04.919Z,0.00
2019-03-16T01:43:04.925Z,0.00
2019-03-16T01:44:04.918Z,0.00
2019-03-16T01:45:04.940Z,0.00
2019-03-16T01:46:04.913Z,0.00
2019-03-16T01:47:04.899Z,0.00
2019-03-16T01:48:04.902Z,0.00
2019-03-16T01:49:04.896Z,0.00
2019-03-16T01:50:04.920Z,0.00
2019-03-16T01:51:04.912Z,0.00
2019-03-16T01:52:05.815Z,0.00
2019-03-16T01:53:04.879Z,0.00
2019-03-16T01:54:04.882Z,0.00
2019-03-16T01:55:04.901Z,0.00
2019-03-16T01:56:04.870Z,0.00
2019-03-16T01:57:04.866Z,0.00
2019-03-16T01:58:04.863Z,0.00
2019-03-16T01:59:04.862Z,0.00
2019-03-16T02:00:04.890Z,0.00
2019-03-16T02:01:04.850Z,0.00
2019-03-16T02:02:04.845Z,0.00
2019-03-16T02:03:04.848Z,0.00
2019-03-16T02:04:04.838Z,0.00
2019-03-16T02:05:04.866Z,0.00
2019-03-16T02:06:04.862Z,0.00
2019-03-16T02:07:04.821Z,0.00
2019-03-16T02:08:04.826Z,0.00
2019-03-16T02:09:04.820Z,0.00
2019-03-16T02:10:04.848Z,0.00
2019-03-16T02:11:04.811Z,0.00
2019-03-16T02:12:04.839Z,0.00
2019-03-16T02:13:04.803Z,0.00
2019-03-16T02:14:04.797Z,0.00
2019-03-16T02:15:04.798Z,0.00
2019-03-16T02:16:10.734Z,0.00
2019-03-16T02:17:04.819Z,0.00
2019-03-16T02:18:04.795Z,0.00
2019-03-16T02:19:04.781Z,0.00
2019-03-16T02:20:04.810Z,0.00
2019-03-16T02:21:04.774Z,0.00
2019-03-16T02:22:04.772Z,0.00
2019-03-16T02:23:04.803Z,0.00
2019-03-16T02:24:04.758Z,0.00
2019-03-16T02:25:04.757Z,0.00
2019-03-16T02:26:04.786Z,0.00
2019-03-16T02:27:04.756Z,0.00
2019-03-16T02:28:04.747Z,0.00
2019-03-16T02:29:04.746Z,0.00
2019-03-16T02:30:04.857Z,0.00
2019-03-16T02:31:04.770Z,0.00
2019-03-16T02:32:04.795Z,0.00
2019-03-16T02:33:12.426Z,0.00
2019-03-16T02:34:04.728Z,0.00
2019-03-16T02:35:04.717Z,0.00
2019-03-16T02:36:04.720Z,0.00
2019-03-16T02:37:04.742Z,0.00
2019-03-16T02:38:04.710Z,0.00
2019-03-16T02:39:04.707Z,0.00
2019-03-16T02:40:04.699Z,0.00
2019-03-16T02:41:04.734Z,0.00
2019-03-16T02:42:04.697Z,0.00
2019-03-16T02:43:04.688Z,0.00
2019-03-16T02:44:04.687Z,0.00
2019-03-16T02:45:04.783Z,0.00
2019-03-16T02:46:04.711Z,0.00
2019-03-16T02:47:04.700Z,0.00
2019-03-16T02:48:04.671Z,0.00
2019-03-16T02:49:04.676Z,0.00
2019-03-16T02:50:04.678Z,0.00
2019-03-16T02:51:04.670Z,0.00
2019-03-16T02:52:04.686Z,0.00
2019-03-16T02:53:04.660Z,0.00
2019-03-16T02:54:04.649Z,0.00
2019-03-16T02:55:04.650Z,0.00
2019-03-16T02:56:04.677Z,0.00
2019-03-16T02:57:04.638Z,0.00
2019-03-16T02:58:04.661Z,0.00
2019-03-16T02:59:04.631Z,0.00
2019-03-16T03:00:04.630Z,0.00
2019-03-16T03:01:04.653Z,0.00
2019-03-16T03:02:04.621Z,0.00
2019-03-16T03:03:04.614Z,0.00
2019-03-16T03:04:04.613Z,0.00
2019-03-16T03:05:04.606Z,0.00
2019-03-16T03:06:04.634Z,0.00
2019-03-16T03:07:04.598Z,0.00
2019-03-16T03:08:04.602Z,0.00
2019-03-16T03:09:04.602Z,0.00
2019-03-16T03:10:04.589Z,0.00
2019-03-16T03:11:04.612Z,0.00
2019-03-16T03:12:04.582Z,0.00
2019-03-16T03:13:04.577Z,0.00
2019-03-16T03:14:04.574Z,0.00
2019-03-16T03:15:04.567Z,0.00
2019-03-16T03:16:04.592Z,0.00
2019-03-16T03:17:04.594Z,0.00
2019-03-16T03:18:04.559Z,0.00
2019-03-16T03:19:04.562Z,0.00
2019-03-16T03:20:04.562Z,0.00
2019-03-16T03:21:04.587Z,0.00
2019-03-16T03:22:04.542Z,0.00
2019-03-16T03:23:04.536Z,0.00
2019-03-16T03:24:04.543Z,0.00
2019-03-16T03:25:05.334Z,0.00
2019-03-16T03:26:04.561Z,0.00
2019-03-16T03:27:04.526Z,0.00
2019-03-16T03:28:04.532Z,0.00
2019-03-16T03:29:04.524Z,0.00
2019-03-16T03:30:04.512Z,0.00
2019-03-16T03:31:04.567Z,0.00
2019-03-16T03:32:04.506Z,0.00
2019-03-16T03:33:04.542Z,0.00
2019-03-16T03:34:04.538Z,0.00
2019-03-16T03:35:04.538Z,0.00
2019-03-16T03:36:04.520Z,0.00
2019-03-16T03:37:04.486Z,0.00
2019-03-16T03:38:04.488Z,0.00
2019-03-16T03:39:04.478Z,0.00
2019-03-16T03:40:04.471Z,0.00
2019-03-16T03:41:04.513Z,0.00
2019-03-16T03:42:04.466Z,0.00
2019-03-16T03:43:04.462Z,0.00
2019-03-16T03:44:04.485Z,0.00
2019-03-16T03:45:04.449Z,0.00
2019-03-16T03:46:04.458Z,0.00
2019-03-16T03:47:04.480Z,0.00
2019-03-16T03:48:04.450Z,0.00
2019-03-16T03:49:04.443Z,0.00
2019-03-16T03:50:04.430Z,0.00
2019-03-16T03:51:04.435Z,0.00
2019-03-16T03:52:04.558Z,0.00
2019-03-16T03:53:04.420Z,0.00
2019-03-16T03:54:04.589Z,0.00
2019-03-16T03:55:04.418Z,0.00
2019-03-16T03:56:04.416Z,0.00
2019-03-16T03:57:04.438Z,0.00
2019-03-16T03:58:04.406Z,0.00
2019-03-16T03:59:04.408Z,0.00
2019-03-16T04:00:04.407Z,0.00
2019-03-16T04:01:04.399Z,0.00
2019-03-16T04:02:04.418Z,0.00
2019-03-16T04:03:04.389Z,0.00
2019-03-16T04:04:15.387Z,0.00
2019-03-16T04:05:04.378Z,0.00
2019-03-16T04:06:04.371Z,0.00
2019-03-16T04:07:04.487Z,0.00
2019-03-16T04:08:04.363Z,0.00
2019-03-16T04:09:04.358Z,0.00
2019-03-16T04:10:04.374Z,0.00
2019-03-16T04:11:04.361Z,0.00
2019-03-16T04:12:04.388Z,0.00
2019-03-16T04:13:04.345Z,0.00
2019-03-16T04:14:04.340Z,0.00
2019-03-16T04:15:04.336Z,0.00
2019-03-16T04:16:04.328Z,0.00
2019-03-16T04:17:04.360Z,0.00
2019-03-16T04:18:04.364Z,0.00
2019-03-16T04:19:04.316Z,0.00
2019-03-16T04:20:04.317Z,0.00
2019-03-16T04:21:04.310Z,0.00
2019-03-16T04:22:04.345Z,0.00
2019-03-16T04:23:04.309Z,0.00
2019-03-16T04:24:04.306Z,0.00
2019-03-16T04:25:04.291Z,0.00
2019-03-16T04:26:04.289Z,0.00
2019-03-16T04:27:15.739Z,0.00
2019-03-16T04:28:05.327Z,0.00
2019-03-16T04:29:04.296Z,0.00
2019-03-16T04:30:04.280Z,0.00
2019-03-16T04:31:04.285Z,0.00
2019-03-16T04:32:04.312Z,0.00
2019-03-16T04:33:04.348Z,0.00
2019-03-16T04:34:04.252Z,0.00
2019-03-16T04:35:04.256Z,0.00
2019-03-16T04:36:04.255Z,0.00
2019-03-16T04:37:04.292Z,0.00
2019-03-16T04:38:04.248Z,0.00
2019-03-16T04:39:04.244Z,0.00
2019-03-16T04:40:04.235Z,0.00
2019-03-16T04:41:04.233Z,0.00
2019-03-16T04:42:04.256Z,0.00
2019-03-16T04:43:04.260Z,0.00
2019-03-16T04:44:04.212Z,0.00
2019-03-16T04:45:04.216Z,0.00
2019-03-16T04:46:04.212Z,0.00
2019-03-16T04:47:04.244Z,0.00
2019-03-16T04:48:04.206Z,0.00
2019-03-16T04:49:04.203Z,0.00
2019-03-16T04:50:04.192Z,0.00
2019-03-16T04:51:04.195Z,0.00
2019-03-16T04:52:04.213Z,0.00
2019-03-16T04:53:04.222Z,0.00
2019-03-16T04:54:04.216Z,0.00
2019-03-16T04:55:04.178Z,0.00
2019-03-16T04:56:04.165Z,0.00
2019-03-16T04:57:04.203Z,0.00
2019-03-16T04:58:04.163Z,0.00
2019-03-16T04:59:04.187Z,0.00
2019-03-16T05:00:04.198Z,0.00
2019-03-16T05:01:04.150Z,0.00
2019-03-16T05:02:04.174Z,4.00
2019-03-16T05:03:04.140Z,4.00
2019-03-16T05:04:04.157Z,4.00
2019-03-16T05:05:04.135Z,4.00
2019-03-16T05:06:04.177Z,4.00
2019-03-16T05:07:04.128Z,8.00
2019-03-16T05:08:04.191Z,12.00
2019-03-16T05:09:04.124Z,12.00
2019-03-16T05:10:07.085Z,12.00
2019-03-16T05:11:04.119Z,16.00
2019-03-16T05:12:04.108Z,16.00
2019-03-16T05:13:04.139Z,20.00
2019-03-16T05:14:04.132Z,24.00
2019-03-16T05:15:04.088Z,32.00
2019-03-16T05:16:04.086Z,36.00
2019-03-16T05:17:04.088Z,40.00
2019-03-16T05:18:04.121Z,48.00
2019-03-16T05:19:04.075Z,52.00
2019-03-16T05:20:04.114Z,60.00
2019-03-16T05:21:04.069Z,68.00
2019-03-16T05:22:04.065Z,68.00
2019-03-16T05:23:04.094Z,80.00
2019-03-16T05:24:04.073Z,92.00
2019-03-16T05:25:04.049Z,100.00
2019-03-16T05:26:04.046Z,108.00
2019-03-16T05:27:04.038Z,124.00
2019-03-16T05:28:04.083Z,164.00
2019-03-16T05:29:04.060Z,212.00
2019-03-16T05:30:04.024Z,248.00
2019-03-16T05:31:04.028Z,276.00
2019-03-16T05:32:04.016Z,296.00
2019-03-16T05:33:04.039Z,316.00
2019-03-16T05:34:04.041Z,340.00
2019-03-16T05:35:04.004Z,368.00
2019-03-16T05:36:04.004Z,412.00
2019-03-16T05:37:04.035Z,444.00
2019-03-16T05:38:04.017Z,544.00
2019-03-16T05:39:03.983Z,640.00
2019-03-16T05:40:03.984Z,648.00
2019-03-16T05:41:03.990Z,628.00
2019-03-16T05:42:05.202Z,592.00
2019-03-16T05:43:04.002Z,532.00
2019-03-16T05:44:03.964Z,484.00
2019-03-16T05:45:03.965Z,572.00
2019-03-16T05:46:03.952Z,712.00
2019-03-16T05:47:03.948Z,900.00
2019-03-16T05:48:03.979Z,972.00
2019-03-16T05:49:03.935Z,1080.00
2019-03-16T05:50:03.940Z,1096.00
2019-03-16T05:51:03.929Z,1132.00
2019-03-16T05:52:03.926Z,1192.00
2019-03-16T05:53:03.923Z,1240.00
2019-03-16T05:54:03.952Z,1320.00
2019-03-16T05:55:03.912Z,1488.00
2019-03-16T05:56:03.905Z,1552.00
2019-03-16T05:57:03.903Z,1604.00
2019-03-16T05:58:03.939Z,1752.00
2019-03-16T05:59:03.903Z,1812.00
2019-03-16T06:00:03.890Z,1760.00
2019-03-16T06:01:03.905Z,1720.00
2019-03-16T06:02:03.888Z,1716.00
2019-03-16T06:03:03.917Z,1688.00
2019-03-16T06:04:03.891Z,1668.00
2019-03-16T06:05:10.474Z,1704.00
2019-03-16T06:06:03.869Z,1792.00
2019-03-16T06:07:03.864Z,1852.00
2019-03-16T06:08:03.884Z,1864.00
2019-03-16T06:09:03.895Z,1864.00
2019-03-16T06:10:03.849Z,1944.00
2019-03-16T06:11:03.866Z,2032.00
2019-03-16T06:12:03.845Z,2060.00
2019-03-16T06:13:03.880Z,2168.00
2019-03-16T06:14:03.833Z,2100.00
2019-03-16T06:15:03.830Z,2360.00
2019-03-16T06:16:03.824Z,2908.00
2019-03-16T06:17:03.815Z,3316.00
2019-03-16T06:18:03.851Z,3280.00
2019-03-16T06:19:03.804Z,2964.00
2019-03-16T06:20:03.804Z,2588.00
2019-03-16T06:21:03.804Z,2356.00
2019-03-16T06:22:03.792Z,2432.00
2019-03-16T06:23:03.819Z,2312.00
2019-03-16T06:24:03.836Z,2064.00
2019-03-16T06:25:03.789Z,1952.00
2019-03-16T06:26:03.780Z,1936.00
2019-03-16T06:27:03.777Z,2124.00
2019-03-16T06:28:03.805Z,2340.00
2019-03-16T06:29:03.771Z,2576.00
2019-03-16T06:30:03.767Z,2420.00
2019-03-16T06:31:03.755Z,2264.00
2019-03-16T06:32:03.754Z,2300.00
2019-03-16T06:33:03.804Z,2716.00
2019-03-16T06:34:03.777Z,3016.00
2019-03-16T06:35:03.743Z,3200.00
2019-03-16T06:36:03.740Z,3236.00
2019-03-16T06:37:03.735Z,3256.00
2019-03-16T06:38:03.723Z,3352.00
2019-03-16T06:39:03.764Z,3396.00
2019-03-16T06:40:03.715Z,3396.00
2019-03-16T06:41:03.711Z,3596.00
2019-03-16T06:42:03.707Z,3628.00
2019-03-16T06:43:03.753Z,3780.00
2019-03-16T06:44:03.741Z,4508.00
2019-03-16T06:45:03.703Z,5232.00
2019-03-16T06:46:03.690Z,5624.00
2019-03-16T06:47:03.695Z,5744.00
2019-03-16T06:48:03.683Z,5620.00
2019-03-16T06:49:03.714Z,5608.00
2019-03-16T06:50:03.671Z,5696.00
2019-03-16T06:51:03.668Z,6044.00
2019-03-16T06:52:03.674Z,6304.00
2019-03-16T06:53:03.667Z,6484.00
2019-03-16T06:54:03.699Z,6576.00
2019-03-16T06:55:03.652Z,6664.00
2019-03-16T06:56:03.651Z,6504.00
2019-03-16T06:57:03.648Z,6176.00
2019-03-16T06:58:03.638Z,5760.00
2019-03-16T06:59:03.663Z,5588.00
2019-03-16T07:00:03.657Z,5508.00
2019-03-16T07:01:03.634Z,5924.00
2019-03-16T07:02:03.627Z,6416.00
2019-03-16T07:03:03.623Z,6400.00
2019-03-16T07:04:03.619Z,6384.00
2019-03-16T07:05:03.648Z,6748.00
2019-03-16T07:06:03.702Z,6924.00
2019-03-16T07:07:03.600Z,6828.00
2019-03-16T07:08:03.597Z,6820.00
2019-03-16T07:09:03.639Z,6984.00
2019-03-16T07:10:03.599Z,7148.00
2019-03-16T07:11:03.597Z,7184.00
2019-03-16T07:12:03.582Z,7460.00
2019-03-16T07:13:03.605Z,7748.00
2019-03-16T07:14:03.621Z,8136.00
2019-03-16T07:15:03.575Z,8464.00
2019-03-16T07:16:03.565Z,8528.00
2019-03-16T07:17:03.576Z,8520.00
2019-03-16T07:18:03.605Z,8328.00
2019-03-16T07:19:03.582Z,8004.00
2019-03-16T07:20:03.554Z,7336.00
2019-03-16T07:21:03.552Z,6852.00
2019-03-16T07:22:03.583Z,6400.00
2019-03-16T07:23:03.578Z,5920.00
2019-03-16T07:24:03.541Z,5608.00
2019-03-16T07:25:03.534Z,5728.00
2019-03-16T07:26:14.226Z,6408.00
2019-03-16T07:27:03.527Z,7460.00
2019-03-16T07:28:03.569Z,8092.00
2019-03-16T07:29:03.558Z,8196.00
2019-03-16T07:30:03.511Z,8112.00
2019-03-16T07:31:03.514Z,8160.00
2019-03-16T07:32:03.506Z,8496.00
2019-03-16T07:33:03.558Z,8792.00
2019-03-16T07:34:03.502Z,8912.00
2019-03-16T07:35:03.522Z,9544.00
2019-03-16T07:36:03.495Z,10680.00
2019-03-16T07:37:03.490Z,10736.00
2019-03-16T07:38:03.479Z,9624.00
2019-03-16T07:39:03.514Z,8464.00
2019-03-16T07:40:03.474Z,7588.00
2019-03-16T07:41:03.473Z,6936.00
2019-03-16T07:42:03.466Z,6916.00
2019-03-16T07:43:03.501Z,6932.00
2019-03-16T07:44:03.468Z,6668.00
2019-03-16T07:45:08.395Z,6764.00
2019-03-16T07:46:03.460Z,7192.00
2019-03-16T07:47:03.455Z,7268.00
2019-03-16T07:48:03.478Z,7560.00
2019-03-16T07:49:03.444Z,8904.00
2019-03-16T07:50:03.442Z,9680.00
2019-03-16T07:51:03.474Z,10008.00
2019-03-16T07:52:03.436Z,10048.00
2019-03-16T07:53:03.426Z,9880.00
2019-03-16T07:54:03.419Z,9556.00
2019-03-16T07:55:03.447Z,8988.00
2019-03-16T07:56:03.417Z,8592.00
2019-03-16T07:57:03.467Z,8824.00
2019-03-16T07:58:03.409Z,9192.00
2019-03-16T07:59:03.446Z,9556.00
2019-03-16T08:00:03.439Z,9800.00
2019-03-16T08:01:03.717Z,10084.00
2019-03-16T08:02:03.402Z,10204.00
2019-03-16T08:03:03.386Z,9764.00
2019-03-16T08:04:03.390Z,9828.00
2019-03-16T08:05:16.954Z,10892.00
2019-03-16T08:06:03.382Z,12684.00
2019-03-16T08:07:03.381Z,13972.00
2019-03-16T08:08:03.377Z,14764.00
2019-03-16T08:09:03.492Z,14384.00
2019-03-16T08:10:03.633Z,12500.00
2019-03-16T08:11:03.358Z,11128.00
2019-03-16T08:12:03.361Z,10484.00
2019-03-16T08:13:03.352Z,9936.00
2019-03-16T08:14:03.375Z,9048.00
2019-03-16T08:15:03.345Z,8864.00
2019-03-16T08:16:03.382Z,8836.00
2019-03-16T08:17:03.349Z,8708.00
2019-03-16T08:18:03.338Z,9016.00
2019-03-16T08:19:03.337Z,9352.00
2019-03-16T08:20:03.366Z,9568.00
2019-03-16T08:21:03.325Z,9392.00
2019-03-16T08:22:03.349Z,9376.00
2019-03-16T08:23:03.322Z,10020.00
2019-03-16T08:24:03.309Z,10996.00
2019-03-16T08:25:03.314Z,10912.00
2019-03-16T08:26:03.322Z,11340.00
2019-03-16T08:27:03.303Z,11548.00
2019-03-16T08:28:03.339Z,12880.00
2019-03-16T08:29:03.306Z,13548.00
2019-03-16T08:30:03.336Z,12864.00
2019-03-16T08:31:03.296Z,11224.00
2019-03-16T08:32:03.283Z,9656.00
2019-03-16T08:33:03.282Z,9092.00
2019-03-16T08:34:03.281Z,8920.00
2019-03-16T08:35:03.302Z,8092.00
2019-03-16T08:36:03.310Z,7700.00
2019-03-16T08:37:03.268Z,8100.00
2019-03-16T08:38:03.267Z,7992.00
2019-03-16T08:39:03.260Z,8080.00
2019-03-16T08:40:03.299Z,7728.00
2019-03-16T08:41:03.297Z,7540.00
2019-03-16T08:42:03.254Z,7512.00
2019-03-16T08:43:03.252Z,8136.00
2019-03-16T08:44:03.247Z,8796.00
2019-03-16T08:45:03.290Z,8476.00
2019-03-16T08:46:03.245Z,7352.00
2019-03-16T08:47:03.473Z,6928.00
2019-03-16T08:48:03.266Z,7464.00
2019-03-16T08:49:03.387Z,8892.00
2019-03-16T08:50:03.283Z,9524.00
2019-03-16T08:51:03.226Z,8808.00
2019-03-16T08:52:03.229Z,8740.00
2019-03-16T08:53:03.254Z,9368.00
2019-03-16T08:54:03.235Z,8952.00
2019-03-16T08:55:03.250Z,8376.00
2019-03-16T08:56:03.256Z,8252.00
2019-03-16T08:57:03.228Z,8028.00
2019-03-16T08:58:06.348Z,8008.00
2019-03-16T08:59:03.582Z,8316.00
2019-03-16T09:00:03.297Z,8548.00
2019-03-16T09:01:03.296Z,8880.00
2019-03-16T09:02:03.263Z,9188.00
2019-03-16T09:03:03.199Z,9056.00
2019-03-16T09:04:03.265Z,7992.00
2019-03-16T09:05:03.193Z,7580.00
2019-03-16T09:06:03.230Z,7036.00
2019-03-16T09:07:03.173Z,7132.00
2019-03-16T09:08:03.241Z,7448.00
2019-03-16T09:09:04.238Z,8280.00
2019-03-16T09:10:03.168Z,7744.00
2019-03-16T09:11:03.284Z,7692.00
2019-03-16T09:12:03.154Z,8068.00
2019-03-16T09:13:03.150Z,8184.00
2019-03-16T09:14:03.162Z,8096.00
2019-03-16T09:15:03.137Z,8524.00
2019-03-16T09:16:03.165Z,7884.00
2019-03-16T09:17:03.145Z,7396.00
2019-03-16T09:18:03.129Z,7244.00
2019-03-16T09:19:03.311Z,7504.00
2019-03-16T09:20:03.127Z,8056.00
2019-03-16T09:21:03.237Z,7536.00
2019-03-16T09:22:03.200Z,7380.00
2019-03-16T09:23:03.124Z,7876.00
2019-03-16T09:24:03.113Z,7920.00
2019-03-16T09:25:03.102Z,7384.00
2019-03-16T09:26:03.142Z,7536.00
2019-03-16T09:27:03.101Z,8116.00
2019-03-16T09:28:03.140Z,8032.00
2019-03-16T09:29:14.522Z,7480.00
2019-03-16T09:30:03.088Z,8104.00
2019-03-16T09:31:03.126Z,7736.00
2019-03-16T09:32:03.078Z,8380.00
2019-03-16T09:33:03.124Z,7988.00
2019-03-16T09:34:03.068Z,8104.00
2019-03-16T09:35:03.820Z,8504.00
2019-03-16T09:36:03.110Z,9276.00
2019-03-16T09:37:03.112Z,9360.00
2019-03-16T09:38:05.250Z,9788.00
2019-03-16T09:39:03.057Z,10300.00
2019-03-16T09:40:03.053Z,9980.00
2019-03-16T09:41:03.082Z,9756.00
2019-03-16T09:42:03.041Z,10252.00
2019-03-16T09:43:03.084Z,10240.00
2019-03-16T09:44:03.043Z,10156.00
2019-03-16T09:45:03.036Z,9816.00
2019-03-16T09:46:03.075Z,9580.00
2019-03-16T09:47:03.033Z,9576.00
2019-03-16T09:48:03.033Z,9432.00
2019-03-16T09:49:03.057Z,10392.00
2019-03-16T09:50:03.022Z,11448.00
2019-03-16T09:51:03.068Z,11392.00
2019-03-16T09:52:03.013Z,11044.00
2019-03-16T09:53:03.013Z,11172.00
2019-03-16T09:54:03.011Z,11396.00
2019-03-16T09:55:03.004Z,11964.00
2019-03-16T09:56:03.034Z,11928.00
2019-03-16T09:57:03.035Z,10580.00
2019-03-16T09:58:02.991Z,9532.00
2019-03-16T09:59:02.987Z,9880.00
2019-03-16T10:00:02.984Z,15900.00
2019-03-16T10:01:03.021Z,20224.00
2019-03-16T10:02:02.977Z,15892.00
2019-03-16T10:03:02.977Z,11716.00
2019-03-16T10:04:02.971Z,9060.00
2019-03-16T10:05:02.971Z,6668.00
2019-03-16T10:06:02.988Z,7056.00
2019-03-16T10:07:03.012Z,10804.00
2019-03-16T10:08:02.969Z,11708.00
2019-03-16T10:09:02.961Z,10352.00
2019-03-16T10:10:02.960Z,7432.00
2019-03-16T10:11:02.975Z,6772.00
2019-03-16T10:12:02.951Z,7824.00
2019-03-16T10:13:02.982Z,9224.00
2019-03-16T10:14:02.941Z,11000.00
2019-03-16T10:15:02.942Z,11452.00
2019-03-16T10:16:02.972Z,12208.00
2019-03-16T10:17:02.964Z,11668.00
2019-03-16T10:18:02.922Z,10512.00
2019-03-16T10:19:02.922Z,9108.00
2019-03-16T10:20:02.922Z,7540.00
2019-03-16T10:21:02.918Z,9104.00
2019-03-16T10:22:02.946Z,11788.00
2019-03-16T10:23:02.906Z,12340.00
2019-03-16T10:24:02.908Z,10580.00
2019-03-16T10:25:02.910Z,12800.00
2019-03-16T10:26:02.917Z,13532.00
2019-03-16T10:27:03.023Z,12340.00
2019-03-16T10:28:02.932Z,10520.00
2019-03-16T10:29:02.889Z,10372.00
2019-03-16T10:30:02.885Z,9612.00
2019-03-16T10:31:02.889Z,10128.00
2019-03-16T10:32:02.915Z,8996.00
2019-03-16T10:33:02.879Z,9724.00
2019-03-16T10:34:02.884Z,8956.00
2019-03-16T10:35:02.868Z,8548.00
2019-03-16T10:36:02.872Z,9464.00
2019-03-16T10:37:02.896Z,10392.00
2019-03-16T10:38:02.901Z,10964.00
2019-03-16T10:39:02.870Z,10508.00
2019-03-16T10:40:02.860Z,10560.00
2019-03-16T10:41:02.852Z,10264.00
2019-03-16T10:42:02.891Z,10816.00
2019-03-16T10:43:02.847Z,10460.00
2019-03-16T10:44:02.854Z,9696.00
2019-03-16T10:45:02.845Z,10096.00
2019-03-16T10:46:02.836Z,10900.00
2019-03-16T10:47:02.866Z,11024.00
2019-03-16T10:48:02.881Z,12152.00
2019-03-16T10:49:02.839Z,11820.00
2019-03-16T10:50:02.831Z,11932.00
2019-03-16T10:51:02.820Z,10476.00
2019-03-16T10:52:02.862Z,10212.00
2019-03-16T10:53:02.821Z,11680.00
2019-03-16T10:54:02.816Z,11192.00
2019-03-16T10:55:02.819Z,11604.00
2019-03-16T10:56:03.415Z,11172.00
2019-03-16T10:57:04.381Z,11628.00
2019-03-16T10:58:02.807Z,11424.00
2019-03-16T10:59:02.804Z,12580.00
2019-03-16T11:00:02.830Z,12204.00
2019-03-16T11:01:02.834Z,12072.00
2019-03-16T11:02:02.832Z,12620.00
2019-03-16T11:03:02.967Z,11452.00
2019-03-16T11:04:02.788Z,11056.00
2019-03-16T11:05:02.789Z,10196.00
2019-03-16T11:06:03.701Z,11244.00
2019-03-16T11:07:02.803Z,11084.00
2019-03-16T11:08:02.809Z,11108.00
2019-03-16T11:09:02.825Z,11176.00
2019-03-16T11:10:02.772Z,12932.00
2019-03-16T11:11:02.774Z,14384.00
2019-03-16T11:12:02.764Z,13548.00
2019-03-16T11:13:02.804Z,14204.00
2019-03-16T11:14:02.765Z,14408.00
2019-03-16T11:15:02.770Z,14096.00
2019-03-16T11:16:02.767Z,15484.00
2019-03-16T11:17:02.795Z,16856.00
2019-03-16T11:18:02.791Z,15492.00
2019-03-16T11:19:02.758Z,15980.00
2019-03-16T11:20:02.756Z,17508.00
2019-03-16T11:21:02.748Z,18784.00
2019-03-16T11:22:02.742Z,19808.00
2019-03-16T11:23:02.788Z,21664.00
2019-03-16T11:24:02.743Z,22848.00
2019-03-16T11:25:02.740Z,25248.00
2019-03-16T11:26:02.748Z,26048.00
2019-03-16T11:27:02.742Z,26880.00
2019-03-16T11:28:02.964Z,27616.00
2019-03-16T11:29:08.844Z,28064.00
2019-03-16T11:30:02.734Z,29024.00
2019-03-16T11:31:02.729Z,29600.00
2019-03-16T11:32:02.724Z,29568.00
2019-03-16T11:33:02.753Z,30336.00
2019-03-16T11:34:02.757Z,30048.00
2019-03-16T11:35:02.717Z,30080.00
2019-03-16T11:36:02.725Z,30208.00
2019-03-16T11:37:02.767Z,29792.00
2019-03-16T11:38:02.754Z,30496.00
2019-03-16T11:39:02.720Z,31872.00
2019-03-16T11:40:02.751Z,33344.00
2019-03-16T11:41:02.717Z,33152.00
2019-03-16T11:42:02.722Z,31904.00
2019-03-16T11:43:02.762Z,30496.00
2019-03-16T11:44:02.720Z,31328.00
2019-03-16T11:45:02.725Z,32672.00
2019-03-16T11:46:02.726Z,35104.00
2019-03-16T11:47:02.734Z,34624.00
2019-03-16T11:48:02.744Z,34432.00
2019-03-16T11:49:02.754Z,33408.00
2019-03-16T11:50:02.731Z,32064.00
2019-03-16T11:51:02.716Z,33280.00
2019-03-16T11:52:02.760Z,35072.00
2019-03-16T11:53:02.745Z,34624.00
2019-03-16T11:54:02.720Z,35840.00
2019-03-16T11:55:02.716Z,38432.00
2019-03-16T11:56:02.717Z,41568.00
2019-03-16T11:57:02.722Z,40704.00
2019-03-16T11:58:02.764Z,39456.00
2019-03-16T11:59:02.720Z,35008.00
2019-03-16T12:00:02.718Z,30816.00
2019-03-16T12:01:02.726Z,28448.00
2019-03-16T12:02:05.537Z,29792.00
2019-03-16T12:03:02.766Z,32128.00
2019-03-16T12:04:02.721Z,32352.00
2019-03-16T12:05:02.725Z,30336.00
2019-03-16T12:06:02.719Z,31776.00
2019-03-16T12:07:02.724Z,27392.00
2019-03-16T12:08:02.776Z,22368.00
2019-03-16T12:09:02.733Z,18304.00
2019-03-16T12:10:02.721Z,17072.00
2019-03-16T12:11:02.724Z,19072.00
2019-03-16T12:12:02.724Z,19232.00
2019-03-16T12:13:02.769Z,16680.00
2019-03-16T12:14:02.728Z,18624.00
2019-03-16T12:15:02.737Z,14524.00
2019-03-16T12:16:02.728Z,9448.00
2019-03-16T12:17:02.727Z,9048.00
2019-03-16T12:18:02.768Z,11496.00
2019-03-16T12:19:02.756Z,15328.00
2019-03-16T12:20:02.728Z,15488.00
2019-03-16T12:21:02.725Z,14224.00
2019-03-16T12:22:02.741Z,16056.00
2019-03-16T12:23:02.736Z,20384.00
2019-03-16T12:24:02.761Z,18752.00
2019-03-16T12:25:02.771Z,15780.00
2019-03-16T12:26:02.748Z,13644.00
2019-03-16T12:27:02.733Z,11048.00
2019-03-16T12:28:02.756Z,10844.00
2019-03-16T12:29:02.732Z,11948.00
2019-03-16T12:30:02.737Z,13420.00